createdAt,value
2022-11-26T00:00:25.500Z,6.41
2022-11-26T00:02:53.326Z,6.38
2022-11-26T00:05:21.173Z,6.36
2022-11-26T00:07:54.812Z,6.36
2022-11-26T00:10:28.218Z,6.41
2022-11-26T00:12:55.560Z,6.44
2022-11-26T00:15:30.829Z,6.46
2022-11-26T00:17:58.084Z,6.47
2022-11-26T00:20:30.367Z,6.47
2022-11-26T00:23:01.333Z,6.48
2022-11-26T00:25:37.383Z,6.49
2022-11-26T00:28:04.061Z,6.45
2022-11-26T00:30:30.416Z,6.45
2022-11-26T00:32:57.977Z,6.44
2022-11-26T00:35:24.480Z,6.37
2022-11-26T00:37:54.115Z,6.58
2022-11-26T00:40:24.755Z,6.42
2022-11-26T00:42:52.308Z,6.41
2022-11-26T00:45:28.495Z,6.41
2022-11-26T00:47:54.912Z,6.36
2022-11-26T00:50:24.367Z,6.35
2022-11-26T00:52:54.319Z,6.30
2022-11-26T00:55:34.193Z,6.27
2022-11-26T00:58:01.378Z,6.41
2022-11-26T01:00:30.100Z,6.34
2022-11-26T01:02:56.888Z,6.33
2022-11-26T01:05:25.507Z,6.29
2022-11-26T01:07:52.876Z,6.28
2022-11-26T01:10:25.983Z,6.28
2022-11-26T01:12:53.449Z,6.36
2022-11-26T01:15:22.395Z,6.52
2022-11-26T01:17:49.851Z,6.54
2022-11-26T01:20:31.222Z,6.57
2022-11-26T01:22:58.620Z,6.58
2022-11-26T01:25:26.415Z,6.56
2022-11-26T01:27:53.366Z,6.47
2022-11-26T01:30:22.951Z,6.45
2022-11-26T01:32:49.532Z,6.43
2022-11-26T01:35:17.662Z,6.47
2022-11-26T01:37:45.165Z,6.51
2022-11-26T01:40:54.941Z,6.52
2022-11-26T01:43:33.195Z,6.53
2022-11-26T01:45:59.562Z,6.54
2022-11-26T01:48:33.612Z,6.58
2022-11-26T01:51:03.047Z,6.59
2022-11-26T01:53:41.886Z,6.52
2022-11-26T01:56:38.927Z,6.58
2022-11-26T01:59:17.601Z,6.52
2022-11-26T02:01:44.129Z,6.64
2022-11-26T02:04:12.870Z,6.50
2022-11-26T02:06:41.011Z,6.56
2022-11-26T02:09:09.085Z,6.54
2022-11-26T02:11:36.036Z,6.58
2022-11-26T02:14:06.502Z,6.50
2022-11-26T02:17:03.465Z,6.52
2022-11-26T02:19:50.271Z,6.52
2022-11-26T02:22:28.707Z,6.57
2022-11-26T02:25:30.431Z,6.54
2022-11-26T02:27:59.808Z,6.51
2022-11-26T02:30:31.649Z,6.54
2022-11-26T02:33:03.937Z,6.54
2022-11-26T02:35:46.278Z,6.68
2022-11-26T02:38:20.817Z,6.68
2022-11-26T02:40:47.616Z,6.54
2022-11-26T02:43:16.419Z,6.53
2022-11-26T02:45:47.617Z,6.55
2022-11-26T02:48:21.370Z,6.53
2022-11-26T02:50:53.267Z,6.50
2022-11-26T02:53:22.298Z,6.61
2022-11-26T02:56:01.137Z,6.59
2022-11-26T02:58:28.236Z,6.60
2022-11-26T03:00:57.027Z,6.52
2022-11-26T03:03:34.697Z,6.54
2022-11-26T03:06:04.764Z,6.51
2022-11-26T03:08:32.650Z,6.53
2022-11-26T03:11:00.097Z,6.44
2022-11-26T03:13:26.596Z,6.49
2022-11-26T03:15:53.134Z,6.46
2022-11-26T03:18:19.562Z,6.46
2022-11-26T03:20:46.028Z,6.48
2022-11-26T03:23:12.488Z,6.53
2022-11-26T03:25:39.024Z,6.43
2022-11-26T03:28:05.576Z,6.37
2022-11-26T03:30:32.365Z,6.35
2022-11-26T03:32:58.806Z,6.36
2022-11-26T03:35:25.338Z,6.30
2022-11-26T03:37:51.811Z,6.25
2022-11-26T03:40:18.345Z,6.27
2022-11-26T03:42:45.003Z,6.29
2022-11-26T03:45:11.964Z,6.42
2022-11-26T03:47:38.953Z,6.37
2022-11-26T03:50:06.609Z,6.33
2022-11-26T03:52:33.094Z,6.29
2022-11-26T03:54:59.447Z,6.42
2022-11-26T03:57:25.791Z,6.33
2022-11-26T03:59:52.125Z,6.35
2022-11-26T04:02:18.628Z,6.35
2022-11-26T04:04:45.392Z,6.42
2022-11-26T04:07:11.835Z,6.46
2022-11-26T04:09:38.235Z,6.36
2022-11-26T04:12:04.742Z,6.42
2022-11-26T04:14:31.101Z,6.37
2022-11-26T04:16:57.618Z,6.38
2022-11-26T04:19:24.152Z,6.37
2022-11-26T04:21:50.537Z,6.38
2022-11-26T04:24:17.022Z,6.36
2022-11-26T04:26:43.488Z,6.48
2022-11-26T04:29:09.829Z,6.46
2022-11-26T04:31:36.519Z,6.36
2022-11-26T04:34:02.999Z,6.33
2022-11-26T04:36:29.375Z,6.35
2022-11-26T04:38:57.316Z,6.33
2022-11-26T04:41:23.767Z,6.33
2022-11-26T04:43:50.158Z,6.35
2022-11-26T04:46:16.743Z,6.38
2022-11-26T04:48:43.225Z,6.41
2022-11-26T04:51:09.620Z,6.52
2022-11-26T04:53:36.005Z,6.43
2022-11-26T04:56:02.371Z,6.44
2022-11-26T04:58:28.725Z,6.49
2022-11-26T05:00:55.156Z,6.47
2022-11-26T05:03:21.595Z,6.57
2022-11-26T05:05:48.033Z,6.48
2022-11-26T05:08:14.841Z,6.51
2022-11-26T05:10:41.564Z,6.51
2022-11-26T05:13:08.047Z,6.50
2022-11-26T05:15:34.457Z,6.48
2022-11-26T05:18:00.819Z,6.50
2022-11-26T05:20:27.473Z,6.56
2022-11-26T05:22:53.875Z,6.49
2022-11-26T05:25:20.423Z,6.53
2022-11-26T05:27:46.783Z,6.53
2022-11-26T05:30:13.649Z,6.51
2022-11-26T05:32:39.995Z,6.51
2022-11-26T05:35:06.740Z,6.56
2022-11-26T05:37:33.184Z,6.53
2022-11-26T05:39:59.515Z,6.58
2022-11-26T05:42:25.882Z,6.48
2022-11-26T05:44:52.247Z,6.51
2022-11-26T05:47:18.658Z,6.55
2022-11-26T05:49:45.006Z,6.50
2022-11-26T05:52:11.504Z,6.49
2022-11-26T05:54:38.244Z,6.47
2022-11-26T05:57:04.745Z,6.47
2022-11-26T05:59:31.122Z,6.48
2022-11-26T06:01:57.536Z,6.45
2022-11-26T06:04:23.966Z,6.50
2022-11-26T06:06:50.314Z,6.52
2022-11-26T06:09:16.826Z,6.50
2022-11-26T06:11:43.197Z,6.44
2022-11-26T06:14:10.522Z,6.44
2022-11-26T06:16:37.224Z,6.42
2022-11-26T06:19:03.658Z,6.45
2022-11-26T06:21:30.032Z,6.37
2022-11-26T06:23:59.511Z,6.37
2022-11-26T06:26:26.664Z,6.36
2022-11-26T06:28:53.141Z,6.44
2022-11-26T06:31:19.726Z,6.49
2022-11-26T06:33:46.322Z,6.48
2022-11-26T06:36:12.747Z,6.46
2022-11-26T06:38:39.088Z,6.48
2022-11-26T06:41:08.004Z,6.49
2022-11-26T06:43:35.593Z,6.48
2022-11-26T06:46:08.243Z,6.52
2022-11-26T06:48:35.911Z,6.53
2022-11-26T06:51:11.050Z,6.50
2022-11-26T06:53:37.723Z,6.55
2022-11-26T06:56:06.710Z,6.59
2022-11-26T06:58:33.523Z,6.52
2022-11-26T07:00:59.913Z,6.51
2022-11-26T07:03:31.872Z,6.50
2022-11-26T07:05:59.687Z,6.53
2022-11-26T07:08:26.177Z,6.54
2022-11-26T07:10:52.560Z,6.59
2022-11-26T07:13:18.954Z,6.61
2022-11-26T07:15:45.430Z,6.63
2022-11-26T07:18:11.812Z,6.58
2022-11-26T07:20:38.345Z,6.62
2022-11-26T07:23:04.755Z,6.58
2022-11-26T07:25:31.382Z,6.57
2022-11-26T07:27:58.209Z,6.60
2022-11-26T07:30:24.748Z,6.61
2022-11-26T07:32:51.092Z,6.58
2022-11-26T07:35:17.500Z,6.57
2022-11-26T07:37:43.863Z,6.58
2022-11-26T07:40:10.480Z,6.63
2022-11-26T07:42:36.871Z,6.63
2022-11-26T07:45:04.523Z,6.66
2022-11-26T07:47:30.986Z,6.77
2022-11-26T07:49:57.354Z,6.71
2022-11-26T07:52:23.710Z,6.70
2022-11-26T07:54:50.091Z,6.67
2022-11-26T07:57:16.516Z,6.72
2022-11-26T07:59:42.871Z,6.75
2022-11-26T08:02:14.561Z,6.79
2022-11-26T08:04:41.313Z,6.79
2022-11-26T08:07:07.944Z,6.76
2022-11-26T08:09:34.496Z,6.80
2022-11-26T08:12:00.866Z,6.77
2022-11-26T08:14:27.243Z,6.81
2022-11-26T08:16:53.653Z,6.84
2022-11-26T08:19:20.133Z,6.87
2022-11-26T08:21:46.492Z,6.82
2022-11-26T08:24:15.739Z,6.83
2022-11-26T08:26:44.499Z,6.80
2022-11-26T08:29:11.652Z,6.84
2022-11-26T08:31:45.306Z,6.90
2022-11-26T08:34:14.984Z,6.96
2022-11-26T08:36:41.751Z,6.95
2022-11-26T08:39:08.930Z,6.96
2022-11-26T08:41:35.305Z,6.93
2022-11-26T08:44:06.709Z,6.91
2022-11-26T08:46:34.474Z,6.87
2022-11-26T08:49:01.127Z,6.92
2022-11-26T08:51:27.481Z,6.94
2022-11-26T08:53:53.851Z,6.90
2022-11-26T08:56:20.780Z,6.93
2022-11-26T08:58:48.750Z,6.98
2022-11-26T09:01:17.199Z,6.98
2022-11-26T09:03:43.880Z,7.00
2022-11-26T09:06:11.063Z,7.04
2022-11-26T09:08:57.202Z,7.10
2022-11-26T09:11:25.758Z,7.09
2022-11-26T09:13:53.382Z,7.08
2022-11-26T09:16:22.998Z,7.10
2022-11-26T09:18:50.348Z,7.18
2022-11-26T09:21:16.933Z,7.15
2022-11-26T09:23:43.476Z,7.16
2022-11-26T09:26:09.853Z,7.17
2022-11-26T09:28:36.347Z,7.18
2022-11-26T09:31:02.891Z,7.22
2022-11-26T09:33:29.965Z,7.33
2022-11-26T09:36:07.693Z,7.32
2022-11-26T09:38:35.176Z,7.33
2022-11-26T09:41:39.928Z,7.33
2022-11-26T09:44:06.237Z,7.35
2022-11-26T09:47:10.117Z,7.40
2022-11-26T09:49:38.606Z,7.38
2022-11-26T09:52:07.768Z,7.38
2022-11-26T09:54:34.635Z,7.49
2022-11-26T09:57:15.952Z,7.58
2022-11-26T09:59:46.123Z,7.54
2022-11-26T10:02:13.372Z,7.44
2022-11-26T10:04:40.960Z,7.41
2022-11-26T10:07:38.658Z,7.43
2022-11-26T10:10:30.668Z,7.54
2022-11-26T10:13:19.148Z,7.50
2022-11-26T10:16:03.793Z,7.42
2022-11-26T10:18:58.033Z,7.47
2022-11-26T10:21:57.545Z,7.46
2022-11-26T10:24:28.575Z,7.46
2022-11-26T10:26:55.941Z,7.58
2022-11-26T10:29:39.100Z,7.47
2022-11-26T10:32:23.489Z,7.51
2022-11-26T10:34:52.523Z,7.48
2022-11-26T10:37:27.354Z,7.38
2022-11-26T10:40:25.856Z,7.46
2022-11-26T10:43:09.806Z,7.48
2022-11-26T10:45:43.086Z,7.52
2022-11-26T10:48:26.284Z,7.50
2022-11-26T10:51:06.507Z,7.51
2022-11-26T10:53:53.562Z,7.46
2022-11-26T10:56:42.321Z,7.43
2022-11-26T10:59:36.563Z,7.36
2022-11-26T11:02:23.192Z,7.35
2022-11-26T11:04:52.673Z,7.41
2022-11-26T11:07:38.921Z,7.33
2022-11-26T11:10:08.345Z,7.33
2022-11-26T11:12:55.830Z,7.27
2022-11-26T11:15:28.560Z,7.32
2022-11-26T11:18:05.976Z,7.36
2022-11-26T11:20:52.644Z,7.39
2022-11-26T11:23:40.091Z,7.34
2022-11-26T11:26:21.768Z,7.44
2022-11-26T11:28:51.699Z,7.38
2022-11-26T11:31:23.774Z,7.44
2022-11-26T11:33:51.329Z,7.40
2022-11-26T11:36:35.985Z,7.44
2022-11-26T11:39:04.153Z,7.44
2022-11-26T11:41:43.203Z,7.47
2022-11-26T11:44:36.011Z,7.51
2022-11-26T11:47:42.550Z,7.50
2022-11-26T11:50:18.219Z,7.44
2022-11-26T11:53:04.014Z,7.47
2022-11-26T11:55:52.272Z,7.49
2022-11-26T11:58:55.723Z,7.46
2022-11-26T12:01:25.079Z,7.47
2022-11-26T12:04:18.134Z,7.50
2022-11-26T12:07:16.077Z,7.53
2022-11-26T12:10:01.214Z,7.66
2022-11-26T12:12:38.541Z,7.77
2022-11-26T12:15:04.832Z,7.73
2022-11-26T12:17:43.798Z,7.60
2022-11-26T12:20:27.923Z,7.64
2022-11-26T12:23:34.924Z,7.60
2022-11-26T12:26:36.866Z,7.65
2022-11-26T12:29:06.232Z,7.59
2022-11-26T12:31:37.898Z,7.54
2022-11-26T12:34:12.574Z,7.65
2022-11-26T12:37:00.212Z,7.71
2022-11-26T12:39:41.871Z,7.86
2022-11-26T12:42:19.470Z,7.77
2022-11-26T12:44:51.740Z,7.80
2022-11-26T12:47:37.654Z,7.81
2022-11-26T12:50:30.200Z,7.87
2022-11-26T12:53:21.999Z,7.85
2022-11-26T12:55:56.497Z,7.82
2022-11-26T12:58:29.054Z,7.83
2022-11-26T13:00:56.836Z,7.81
2022-11-26T13:03:28.413Z,7.84
2022-11-26T13:06:19.410Z,7.86
2022-11-26T13:09:03.346Z,7.83
2022-11-26T13:11:48.231Z,7.79
2022-11-26T13:14:23.641Z,7.73
2022-11-26T13:17:08.977Z,7.66
2022-11-26T13:19:44.896Z,7.75
2022-11-26T13:22:49.031Z,7.67
2022-11-26T13:25:31.530Z,7.78
2022-11-26T13:28:17.578Z,7.74
2022-11-26T13:30:59.520Z,7.67
2022-11-26T13:33:35.112Z,7.72
2022-11-26T13:36:24.109Z,7.68
2022-11-26T13:38:59.333Z,7.65
2022-11-26T13:42:06.268Z,7.79
2022-11-26T13:45:23.198Z,7.74
2022-11-26T13:47:56.546Z,7.68
2022-11-26T13:50:28.811Z,7.74
2022-11-26T13:53:04.457Z,7.75
2022-11-26T13:55:41.243Z,7.72
2022-11-26T13:58:16.851Z,7.81
2022-11-26T14:00:43.402Z,7.84
2022-11-26T14:03:48.869Z,7.94
2022-11-26T14:06:15.403Z,7.85
2022-11-26T14:08:47.243Z,7.81
2022-11-26T14:11:45.573Z,7.83
2022-11-26T14:14:23.857Z,7.80
2022-11-26T14:17:02.501Z,7.88
2022-11-26T14:19:41.636Z,7.74
2022-11-26T14:22:30.222Z,7.73
2022-11-26T14:24:59.797Z,7.77
2022-11-26T14:27:52.551Z,7.78
2022-11-26T14:30:24.072Z,7.82
2022-11-26T14:32:53.167Z,7.80
2022-11-26T14:35:34.584Z,7.78
2022-11-26T14:38:03.706Z,7.81
2022-11-26T14:40:33.139Z,7.80
2022-11-26T14:43:17.452Z,7.79
2022-11-26T14:45:46.694Z,7.80
2022-11-26T14:48:28.649Z,7.73
2022-11-26T14:50:59.160Z,7.66
2022-11-26T14:53:30.373Z,7.66
2022-11-26T14:55:57.285Z,7.64
2022-11-26T14:58:36.546Z,7.58
2022-11-26T15:01:15.087Z,7.59
2022-11-26T15:03:42.215Z,7.53
2022-11-26T15:06:25.581Z,7.50
2022-11-26T15:09:26.757Z,7.43
2022-11-26T15:12:14.951Z,7.37
2022-11-26T15:14:54.824Z,7.38
2022-11-26T15:17:24.051Z,7.31
2022-11-26T15:19:52.569Z,7.25
2022-11-26T15:22:22.967Z,7.22
2022-11-26T15:24:53.293Z,7.15
2022-11-26T15:27:39.644Z,7.11
2022-11-26T15:30:49.810Z,7.05
2022-11-26T15:33:17.017Z,6.99
2022-11-26T15:35:43.813Z,6.91
2022-11-26T15:38:16.310Z,6.93
2022-11-26T15:41:14.084Z,6.94
2022-11-26T15:43:46.358Z,6.86
2022-11-26T15:46:35.268Z,6.80
2022-11-26T15:49:05.580Z,6.88
2022-11-26T15:51:42.036Z,6.76
2022-11-26T15:54:26.430Z,6.68
2022-11-26T15:57:07.712Z,6.70
2022-11-26T15:59:46.171Z,6.65
2022-11-26T16:02:24.631Z,6.71
2022-11-26T16:04:57.980Z,6.74
2022-11-26T16:07:30.054Z,6.87
2022-11-26T16:10:21.925Z,6.89
2022-11-26T16:13:11.323Z,6.86
2022-11-26T16:15:46.760Z,6.75
2022-11-26T16:18:20.042Z,6.72
2022-11-26T16:20:46.695Z,6.70
2022-11-26T16:23:20.909Z,6.78
2022-11-26T16:26:07.549Z,6.73
2022-11-26T16:28:33.970Z,6.78
2022-11-26T16:31:00.441Z,6.80
2022-11-26T16:33:28.265Z,6.68
2022-11-26T16:35:55.225Z,6.69
2022-11-26T16:38:24.980Z,6.70
2022-11-26T16:40:52.099Z,6.68
2022-11-26T16:43:18.866Z,6.68
2022-11-26T16:45:45.802Z,6.73
2022-11-26T16:48:30.500Z,6.68
2022-11-26T16:50:56.886Z,6.68
2022-11-26T16:53:23.504Z,6.67
2022-11-26T16:55:50.982Z,6.73
2022-11-26T16:58:27.529Z,6.82
2022-11-26T17:00:55.543Z,6.71
2022-11-26T17:03:25.166Z,6.69
2022-11-26T17:05:56.251Z,6.66
2022-11-26T17:08:22.990Z,6.65
2022-11-26T17:10:50.836Z,6.64
2022-11-26T17:13:18.156Z,6.63
2022-11-26T17:15:44.946Z,6.75
2022-11-26T17:18:20.172Z,6.70
2022-11-26T17:20:47.016Z,6.81
2022-11-26T17:23:14.183Z,6.98
2022-11-26T17:25:40.757Z,6.89
2022-11-26T17:28:14.466Z,6.78
2022-11-26T17:30:42.669Z,6.72
2022-11-26T17:33:10.387Z,6.67
2022-11-26T17:35:36.951Z,6.71
2022-11-26T17:38:10.059Z,6.67
2022-11-26T17:40:36.514Z,6.65
2022-11-26T17:43:02.880Z,6.65
2022-11-26T17:45:29.255Z,6.61
2022-11-26T17:47:55.711Z,6.60
2022-11-26T17:50:25.024Z,6.60
2022-11-26T17:52:51.755Z,6.58
2022-11-26T17:55:19.975Z,6.60
2022-11-26T17:57:46.393Z,6.61
2022-11-26T18:00:16.344Z,6.63
2022-11-26T18:02:43.749Z,6.71
2022-11-26T18:05:11.244Z,6.61
2022-11-26T18:07:38.418Z,6.66
2022-11-26T18:10:06.963Z,6.63
2022-11-26T18:12:33.964Z,6.64
2022-11-26T18:15:01.894Z,6.60
2022-11-26T18:17:28.355Z,6.56
2022-11-26T18:19:54.880Z,6.56
2022-11-26T18:22:24.078Z,6.53
2022-11-26T18:24:56.354Z,6.50
2022-11-26T18:27:27.286Z,6.46
2022-11-26T18:29:54.023Z,6.45
2022-11-26T18:32:21.170Z,6.42
2022-11-26T18:34:53.456Z,6.42
2022-11-26T18:37:19.867Z,6.41
2022-11-26T18:39:46.226Z,6.43
2022-11-26T18:44:59.848Z,6.41
2022-11-26T18:47:26.262Z,6.40
2022-11-26T18:49:53.179Z,6.38
2022-11-26T18:52:19.544Z,6.36
2022-11-26T18:54:45.906Z,6.43
2022-11-26T18:57:12.365Z,6.46
2022-11-26T18:59:39.069Z,6.50
2022-11-26T19:02:05.784Z,6.47
2022-11-26T19:04:32.988Z,6.46
2022-11-26T19:06:59.341Z,6.44
2022-11-26T19:09:25.801Z,6.44
2022-11-26T19:11:58.154Z,6.45
2022-11-26T19:14:24.541Z,6.49
2022-11-26T19:16:51.661Z,6.57
2022-11-26T19:19:18.325Z,6.53
2022-11-26T19:21:44.765Z,6.50
2022-11-26T19:24:12.448Z,6.58
2022-11-26T19:26:41.131Z,6.47
2022-11-26T19:29:09.017Z,6.48
2022-11-26T19:31:35.971Z,6.43
2022-11-26T19:34:09.833Z,6.37
2022-11-26T19:36:36.957Z,6.42
2022-11-26T19:39:05.469Z,6.42
2022-11-26T19:41:32.623Z,6.38
2022-11-26T19:44:00.576Z,6.47
2022-11-26T19:46:27.662Z,6.43
2022-11-26T19:48:55.417Z,6.41
2022-11-26T19:51:23.543Z,6.37
2022-11-26T19:53:51.839Z,6.34
2022-11-26T19:56:19.969Z,6.33
2022-11-26T19:58:46.644Z,6.40
2022-11-26T20:01:15.376Z,6.64
2022-11-26T20:03:42.564Z,6.60
2022-11-26T20:06:18.543Z,6.44
2022-11-26T20:08:46.110Z,6.44
2022-11-26T20:11:13.298Z,6.44
2022-11-26T20:13:41.597Z,6.36
2022-11-26T20:16:14.949Z,6.33
2022-11-26T20:18:41.655Z,6.30
2022-11-26T20:21:11.264Z,6.28
2022-11-26T20:23:37.960Z,6.27
2022-11-26T20:26:13.606Z,6.26
2022-11-26T20:28:39.947Z,6.28
2022-11-26T20:31:06.369Z,6.21
2022-11-26T20:33:34.482Z,6.21
2022-11-26T20:36:00.864Z,6.18
2022-11-26T20:38:27.216Z,6.25
2022-11-26T20:40:53.573Z,6.17
2022-11-26T20:43:19.940Z,6.20
2022-11-26T20:45:46.831Z,6.20
2022-11-26T20:48:13.237Z,6.16
2022-11-26T20:50:39.633Z,6.14
2022-11-26T20:53:06.016Z,6.16
2022-11-26T20:55:32.437Z,6.10
2022-11-26T20:57:58.797Z,6.07
2022-11-26T21:00:27.704Z,6.01
2022-11-26T21:02:54.447Z,5.97
2022-11-26T21:05:22.495Z,5.92
2022-11-26T21:07:50.754Z,5.87
2022-11-26T21:10:18.237Z,5.85
2022-11-26T21:12:44.609Z,5.81
2022-11-26T21:15:11.429Z,5.78
2022-11-26T21:17:37.894Z,5.76
2022-11-26T21:20:06.169Z,5.83
2022-11-26T21:22:32.710Z,5.73
2022-11-26T21:24:59.081Z,5.68
2022-11-26T21:27:25.437Z,5.66
2022-11-26T21:29:51.810Z,5.63
2022-11-26T21:32:18.163Z,5.61
2022-11-26T21:34:44.508Z,5.64
2022-11-26T21:37:10.848Z,5.61
2022-11-26T21:39:37.982Z,5.62
2022-11-26T21:42:04.523Z,5.58
2022-11-26T21:44:30.932Z,5.50
2022-11-26T21:46:57.354Z,5.53
2022-11-26T21:49:27.996Z,5.46
2022-11-26T21:51:54.331Z,5.50
2022-11-26T21:54:20.691Z,5.44
2022-11-26T21:56:47.070Z,5.44
2022-11-26T21:59:13.421Z,5.42
2022-11-26T22:01:40.264Z,5.44
2022-11-26T22:04:12.096Z,5.57
2022-11-26T22:06:38.855Z,5.53
2022-11-26T22:09:06.101Z,5.36
2022-11-26T22:11:38.082Z,5.39
2022-11-26T22:14:05.437Z,5.37
2022-11-26T22:16:31.980Z,5.38
2022-11-26T22:19:00.155Z,5.32
2022-11-26T22:21:32.521Z,5.30
2022-11-26T22:24:00.792Z,5.25
2022-11-26T22:26:28.213Z,5.34
2022-11-26T22:28:57.761Z,5.22
2022-11-26T22:31:29.370Z,5.27
2022-11-26T22:34:01.282Z,5.22
2022-11-26T22:36:28.262Z,5.25
2022-11-26T22:38:55.306Z,5.25
2022-11-26T22:41:22.956Z,5.29
2022-11-26T22:43:49.355Z,5.28
2022-11-26T22:46:18.212Z,5.23
2022-11-26T22:48:55.390Z,5.21
2022-11-26T22:51:22.929Z,5.21
2022-11-26T22:53:50.929Z,5.30
2022-11-26T22:56:18.556Z,5.26
2022-11-26T22:58:45.478Z,5.38
2022-11-26T23:01:26.143Z,5.32
2022-11-26T23:03:53.460Z,5.23
2022-11-26T23:06:21.911Z,5.28
2022-11-26T23:08:49.081Z,5.22
2022-11-26T23:11:17.346Z,5.16
2022-11-26T23:13:45.934Z,5.16
2022-11-26T23:16:12.984Z,5.15
2022-11-26T23:18:39.861Z,5.18
2022-11-26T23:21:14.759Z,5.19
2022-11-26T23:23:41.820Z,5.21
2022-11-26T23:26:10.876Z,5.28
2022-11-26T23:28:37.744Z,5.23
2022-11-26T23:31:06.874Z,5.23
2022-11-26T23:33:34.856Z,5.25
2022-11-26T23:36:01.886Z,5.28
2022-11-26T23:38:28.519Z,5.25
2022-11-26T23:40:56.815Z,5.27
2022-11-26T23:43:26.285Z,5.29
2022-11-26T23:46:15.381Z,5.26
2022-11-26T23:48:42.119Z,5.25
2022-11-26T23:51:11.558Z,5.28
2022-11-26T23:53:43.069Z,5.22
2022-11-26T23:56:21.311Z,5.29
2022-11-26T23:58:56.031Z,5.27
